sensor_id;sensor_type;location;lat;lon;timestamp;temperature;humidity
13164;DHT22;6647;53.688;10.746;2022-10-23T00:02:44;13.40;99.90
13164;DHT22;6647;53.688;10.746;2022-10-23T00:04:10;13.40;99.90
13164;DHT22;6647;53.688;10.746;2022-10-23T00:05:31;13.40;99.90
13164;DHT22;6647;53.688;10.746;2022-10-23T00:06:52;13.40;99.90
13164;DHT22;6647;53.688;10.746;2022-10-23T00:08:13;13.40;99.90
13164;DHT22;6647;53.688;10.746;2022-10-23T00:09:34;13.40;99.90
13164;DHT22;6647;53.688;10.746;2022-10-23T00:10:55;13.40;99.90
13164;DHT22;6647;53.688;10.746;2022-10-23T00:12:16;13.40;99.90
13164;DHT22;6647;53.688;10.746;2022-10-23T00:13:36;13.40;99.90
13164;DHT22;6647;53.688;10.746;2022-10-23T00:14:57;13.40;99.90
13164;DHT22;6647;53.688;10.746;2022-10-23T00:16:18;13.40;99.90
13164;DHT22;6647;53.688;10.746;2022-10-23T00:17:39;13.40;99.90
13164;DHT22;6647;53.688;10.746;2022-10-23T00:19:00;13.40;99.90
13164;DHT22;6647;53.688;10.746;2022-10-23T00:20:21;13.40;99.90
13164;DHT22;6647;53.688;10.746;2022-10-23T00:21:42;13.40;99.90
13164;DHT22;6647;53.688;10.746;2022-10-23T00:23:03;13.40;99.90
13164;DHT22;6647;53.688;10.746;2022-10-23T00:24:24;13.40;99.90
13164;DHT22;6647;53.688;10.746;2022-10-23T00:25:45;13.30;99.90
13164;DHT22;6647;53.688;10.746;2022-10-23T00:27:06;13.30;99.90
13164;DHT22;6647;53.688;10.746;2022-10-23T00:28:26;13.30;99.90
13164;DHT22;6647;53.688;10.746;2022-10-23T00:29:47;13.30;99.90
13164;DHT22;6647;53.688;10.746;2022-10-23T00:31:08;13.30;99.90
13164;DHT22;6647;53.688;10.746;2022-10-23T00:32:30;13.30;99.90
13164;DHT22;6647;53.688;10.746;2022-10-23T00:33:51;13.30;99.90
13164;DHT22;6647;53.688;10.746;2022-10-23T00:35:12;13.30;99.90
13164;DHT22;6647;53.688;10.746;2022-10-23T00:36:33;13.30;99.90
13164;DHT22;6647;53.688;10.746;2022-10-23T00:37:54;13.30;99.90
13164;DHT22;6647;53.688;10.746;2022-10-23T00:39:15;13.30;99.90
13164;DHT22;6647;53.688;10.746;2022-10-23T00:40:37;13.30;99.90
13164;DHT22;6647;53.688;10.746;2022-10-23T00:41:58;13.30;99.90
13164;DHT22;6647;53.688;10.746;2022-10-23T00:43:25;13.30;99.90
13164;DHT22;6647;53.688;10.746;2022-10-23T00:46:10;13.20;99.90
13164;DHT22;6647;53.688;10.746;2022-10-23T00:47:31;13.20;99.90
13164;DHT22;6647;53.688;10.746;2022-10-23T00:48:52;13.20;99.90
13164;DHT22;6647;53.688;10.746;2022-10-23T00:50:13;13.20;99.90
13164;DHT22;6647;53.688;10.746;2022-10-23T00:51:47;13.20;99.90
13164;DHT22;6647;53.688;10.746;2022-10-23T00:53:11;13.20;99.90
13164;DHT22;6647;53.688;10.746;2022-10-23T00:54:35;13.20;99.90
13164;DHT22;6647;53.688;10.746;2022-10-23T00:55:57;13.20;99.90
13164;DHT22;6647;53.688;10.746;2022-10-23T00:57:19;13.20;99.90
13164;DHT22;6647;53.688;10.746;2022-10-23T00:58:40;13.20;99.90
13164;DHT22;6647;53.688;10.746;2022-10-23T01:00:01;13.20;99.90
13164;DHT22;6647;53.688;10.746;2022-10-23T01:01:22;13.20;99.90
13164;DHT22;6647;53.688;10.746;2022-10-23T01:02:43;13.10;99.90
13164;DHT22;6647;53.688;10.746;2022-10-23T01:04:06;13.10;99.90
13164;DHT22;6647;53.688;10.746;2022-10-23T01:05:35;13.10;99.90
13164;DHT22;6647;53.688;10.746;2022-10-23T01:09:02;13.10;99.90
13164;DHT22;6647;53.688;10.746;2022-10-23T01:10:39;13.10;99.90
13164;DHT22;6647;53.688;10.746;2022-10-23T01:15:10;13.10;99.90
13164;DHT22;6647;53.688;10.746;2022-10-23T01:16:52;13.10;99.90
13164;DHT22;6647;53.688;10.746;2022-10-23T01:18:23;13.10;99.90
13164;DHT22;6647;53.688;10.746;2022-10-23T01:21:51;13.10;99.90
13164;DHT22;6647;53.688;10.746;2022-10-23T01:28:46;13.00;99.90
13164;DHT22;6647;53.688;10.746;2022-10-23T01:30:10;13.00;99.90
13164;DHT22;6647;53.688;10.746;2022-10-23T01:32:31;13.00;99.90
13164;DHT22;6647;53.688;10.746;2022-10-23T01:33:30;13.00;99.90
13164;DHT22;6647;53.688;10.746;2022-10-23T01:35:12;13.00;99.90
13164;DHT22;6647;53.688;10.746;2022-10-23T01:36:33;13.00;99.90
13164;DHT22;6647;53.688;10.746;2022-10-23T01:39:34;12.90;99.90
13164;DHT22;6647;53.688;10.746;2022-10-23T01:41:01;12.90;99.90
13164;DHT22;6647;53.688;10.746;2022-10-23T01:42:32;12.90;99.90
13164;DHT22;6647;53.688;10.746;2022-10-23T01:45:36;12.90;99.90
13164;DHT22;6647;53.688;10.746;2022-10-23T01:46:59;12.90;99.90
13164;DHT22;6647;53.688;10.746;2022-10-23T01:48:25;12.90;99.90
13164;DHT22;6647;53.688;10.746;2022-10-23T01:49:47;12.80;99.90
13164;DHT22;6647;53.688;10.746;2022-10-23T01:51:12;12.90;99.90
13164;DHT22;6647;53.688;10.746;2022-10-23T01:52:34;12.80;99.90
13164;DHT22;6647;53.688;10.746;2022-10-23T01:53:58;12.80;99.90
13164;DHT22;6647;53.688;10.746;2022-10-23T01:55:21;12.80;99.90
13164;DHT22;6647;53.688;10.746;2022-10-23T01:56:45;12.80;99.90
13164;DHT22;6647;53.688;10.746;2022-10-23T01:58:09;12.80;99.90
13164;DHT22;6647;53.688;10.746;2022-10-23T01:59:33;12.80;99.90
13164;DHT22;6647;53.688;10.746;2022-10-23T02:00:59;12.80;99.90
13164;DHT22;6647;53.688;10.746;2022-10-23T02:02:21;12.80;99.90
13164;DHT22;6647;53.688;10.746;2022-10-23T02:03:44;12.80;99.90
13164;DHT22;6647;53.688;10.746;2022-10-23T02:06:28;12.70;99.90
13164;DHT22;6647;53.688;10.746;2022-10-23T02:07:49;12.70;99.90
13164;DHT22;6647;53.688;10.746;2022-10-23T02:09:11;12.70;99.90
13164;DHT22;6647;53.688;10.746;2022-10-23T02:10:59;12.70;99.90
13164;DHT22;6647;53.688;10.746;2022-10-23T02:16:35;12.70;99.90
13164;DHT22;6647;53.688;10.746;2022-10-23T02:19:48;12.70;99.90
13164;DHT22;6647;53.688;10.746;2022-10-23T02:21:13;12.70;99.90
13164;DHT22;6647;53.688;10.746;2022-10-23T02:22:39;12.70;99.90
13164;DHT22;6647;53.688;10.746;2022-10-23T02:24:11;12.70;99.90
13164;DHT22;6647;53.688;10.746;2022-10-23T02:25:38;12.70;99.90
13164;DHT22;6647;53.688;10.746;2022-10-23T02:27:25;12.70;99.90
13164;DHT22;6647;53.688;10.746;2022-10-23T02:28:52;12.70;99.90
13164;DHT22;6647;53.688;10.746;2022-10-23T02:30:18;12.70;99.90
13164;DHT22;6647;53.688;10.746;2022-10-23T02:31:39;12.70;99.90
13164;DHT22;6647;53.688;10.746;2022-10-23T02:33:01;12.70;99.90
13164;DHT22;6647;53.688;10.746;2022-10-23T02:34:23;12.70;99.90
13164;DHT22;6647;53.688;10.746;2022-10-23T02:35:45;12.70;99.90
13164;DHT22;6647;53.688;10.746;2022-10-23T02:37:06;12.70;99.90
13164;DHT22;6647;53.688;10.746;2022-10-23T02:38:36;12.70;99.90
13164;DHT22;6647;53.688;10.746;2022-10-23T02:39:57;12.70;99.90
13164;DHT22;6647;53.688;10.746;2022-10-23T02:41:38;12.70;99.90
13164;DHT22;6647;53.688;10.746;2022-10-23T02:46:35;12.70;99.90
13164;DHT22;6647;53.688;10.746;2022-10-23T02:48:18;12.70;99.90
13164;DHT22;6647;53.688;10.746;2022-10-23T02:50:03;12.60;99.90
13164;DHT22;6647;53.688;10.746;2022-10-23T02:53:30;12.60;99.90
13164;DHT22;6647;53.688;10.746;2022-10-23T02:57:08;12.60;99.90
13164;DHT22;6647;53.688;10.746;2022-10-23T02:58:44;12.60;99.90
13164;DHT22;6647;53.688;10.746;2022-10-23T03:00:13;12.60;99.90
13164;DHT22;6647;53.688;10.746;2022-10-23T03:01:49;12.60;99.90
13164;DHT22;6647;53.688;10.746;2022-10-23T03:03:18;12.60;99.90
13164;DHT22;6647;53.688;10.746;2022-10-23T03:04:41;12.60;99.90
13164;DHT22;6647;53.688;10.746;2022-10-23T03:06:03;12.60;99.90
13164;DHT22;6647;53.688;10.746;2022-10-23T03:07:25;12.60;99.90
13164;DHT22;6647;53.688;10.746;2022-10-23T03:08:52;12.50;99.90
13164;DHT22;6647;53.688;10.746;2022-10-23T03:10:14;12.50;99.90
13164;DHT22;6647;53.688;10.746;2022-10-23T03:11:35;12.50;99.90
13164;DHT22;6647;53.688;10.746;2022-10-23T03:12:56;12.50;99.90
13164;DHT22;6647;53.688;10.746;2022-10-23T03:14:17;12.50;99.90
13164;DHT22;6647;53.688;10.746;2022-10-23T03:15:38;12.50;99.90
13164;DHT22;6647;53.688;10.746;2022-10-23T03:16:58;12.50;99.90
13164;DHT22;6647;53.688;10.746;2022-10-23T03:18:19;12.50;99.90
13164;DHT22;6647;53.688;10.746;2022-10-23T03:19:40;12.50;99.90
13164;DHT22;6647;53.688;10.746;2022-10-23T03:21:01;12.50;99.90
13164;DHT22;6647;53.688;10.746;2022-10-23T03:22:22;12.50;99.90
13164;DHT22;6647;53.688;10.746;2022-10-23T03:23:43;12.50;99.90
13164;DHT22;6647;53.688;10.746;2022-10-23T03:25:04;12.50;99.90
13164;DHT22;6647;53.688;10.746;2022-10-23T03:26:25;12.50;99.90
13164;DHT22;6647;53.688;10.746;2022-10-23T03:27:46;12.50;99.90
13164;DHT22;6647;53.688;10.746;2022-10-23T03:29:07;12.50;99.90
13164;DHT22;6647;53.688;10.746;2022-10-23T03:30:28;12.50;99.90
13164;DHT22;6647;53.688;10.746;2022-10-23T03:31:49;12.50;99.90
13164;DHT22;6647;53.688;10.746;2022-10-23T03:33:10;12.50;99.90
13164;DHT22;6647;53.688;10.746;2022-10-23T03:34:30;12.40;99.90
13164;DHT22;6647;53.688;10.746;2022-10-23T03:35:51;12.40;99.90
13164;DHT22;6647;53.688;10.746;2022-10-23T03:37:12;12.40;99.90
13164;DHT22;6647;53.688;10.746;2022-10-23T03:38:33;12.40;99.90
13164;DHT22;6647;53.688;10.746;2022-10-23T03:39:54;12.40;99.90
13164;DHT22;6647;53.688;10.746;2022-10-23T03:41:15;12.40;99.90
13164;DHT22;6647;53.688;10.746;2022-10-23T03:42:36;12.40;99.90
13164;DHT22;6647;53.688;10.746;2022-10-23T03:43:56;12.40;99.90
13164;DHT22;6647;53.688;10.746;2022-10-23T03:45:17;12.40;99.90
13164;DHT22;6647;53.688;10.746;2022-10-23T03:46:38;12.40;99.90
13164;DHT22;6647;53.688;10.746;2022-10-23T03:48:00;12.40;99.90
13164;DHT22;6647;53.688;10.746;2022-10-23T03:49:21;12.30;99.90
13164;DHT22;6647;53.688;10.746;2022-10-23T03:50:42;12.30;99.90
13164;DHT22;6647;53.688;10.746;2022-10-23T03:52:03;12.30;99.90
13164;DHT22;6647;53.688;10.746;2022-10-23T03:53:24;12.30;99.90
13164;DHT22;6647;53.688;10.746;2022-10-23T03:54:45;12.30;99.90
13164;DHT22;6647;53.688;10.746;2022-10-23T03:56:06;12.30;99.90
13164;DHT22;6647;53.688;10.746;2022-10-23T03:57:27;12.30;99.90
13164;DHT22;6647;53.688;10.746;2022-10-23T03:58:48;12.30;99.90
13164;DHT22;6647;53.688;10.746;2022-10-23T04:00:09;12.30;99.90
13164;DHT22;6647;53.688;10.746;2022-10-23T04:01:30;12.30;99.90
13164;DHT22;6647;53.688;10.746;2022-10-23T04:02:51;12.30;99.90
13164;DHT22;6647;53.688;10.746;2022-10-23T04:04:12;12.20;99.90
13164;DHT22;6647;53.688;10.746;2022-10-23T04:05:33;12.20;99.90
13164;DHT22;6647;53.688;10.746;2022-10-23T04:06:55;12.20;99.90
13164;DHT22;6647;53.688;10.746;2022-10-23T04:08:16;12.20;99.90
13164;DHT22;6647;53.688;10.746;2022-10-23T04:09:37;12.20;99.90
13164;DHT22;6647;53.688;10.746;2022-10-23T04:10:58;12.20;99.90
13164;DHT22;6647;53.688;10.746;2022-10-23T04:12:19;12.20;99.90
13164;DHT22;6647;53.688;10.746;2022-10-23T04:13:39;12.20;99.90
13164;DHT22;6647;53.688;10.746;2022-10-23T04:15:00;12.20;99.90
13164;DHT22;6647;53.688;10.746;2022-10-23T04:16:22;12.20;99.90
13164;DHT22;6647;53.688;10.746;2022-10-23T04:17:43;12.20;99.90
13164;DHT22;6647;53.688;10.746;2022-10-23T04:19:04;12.20;99.90
13164;DHT22;6647;53.688;10.746;2022-10-23T04:20:25;12.20;99.90
13164;DHT22;6647;53.688;10.746;2022-10-23T04:21:49;12.20;99.90
13164;DHT22;6647;53.688;10.746;2022-10-23T04:23:10;12.20;99.90
13164;DHT22;6647;53.688;10.746;2022-10-23T04:24:31;12.20;99.90
13164;DHT22;6647;53.688;10.746;2022-10-23T04:25:55;12.20;99.90
13164;DHT22;6647;53.688;10.746;2022-10-23T04:27:16;12.20;99.90
13164;DHT22;6647;53.688;10.746;2022-10-23T04:28:37;12.20;99.90
13164;DHT22;6647;53.688;10.746;2022-10-23T04:29:58;12.20;99.90
13164;DHT22;6647;53.688;10.746;2022-10-23T04:31:19;12.20;99.90
13164;DHT22;6647;53.688;10.746;2022-10-23T04:32:39;12.20;99.90
13164;DHT22;6647;53.688;10.746;2022-10-23T04:34:00;12.10;99.90
13164;DHT22;6647;53.688;10.746;2022-10-23T04:35:21;12.10;99.90
13164;DHT22;6647;53.688;10.746;2022-10-23T04:36:42;12.10;99.90
13164;DHT22;6647;53.688;10.746;2022-10-23T04:38:03;12.10;99.90
13164;DHT22;6647;53.688;10.746;2022-10-23T04:39:24;12.10;99.90
13164;DHT22;6647;53.688;10.746;2022-10-23T04:40:45;12.10;99.90
13164;DHT22;6647;53.688;10.746;2022-10-23T04:42:06;12.10;99.90
13164;DHT22;6647;53.688;10.746;2022-10-23T04:43:27;12.10;99.90
13164;DHT22;6647;53.688;10.746;2022-10-23T04:44:47;12.10;99.90
13164;DHT22;6647;53.688;10.746;2022-10-23T04:46:08;12.10;99.90
13164;DHT22;6647;53.688;10.746;2022-10-23T04:47:29;12.10;99.90
13164;DHT22;6647;53.688;10.746;2022-10-23T04:48:50;12.10;99.90
13164;DHT22;6647;53.688;10.746;2022-10-23T04:50:12;12.10;99.90
13164;DHT22;6647;53.688;10.746;2022-10-23T04:51:32;12.10;99.90
13164;DHT22;6647;53.688;10.746;2022-10-23T04:52:55;12.10;99.90
13164;DHT22;6647;53.688;10.746;2022-10-23T04:54:16;12.10;99.90
13164;DHT22;6647;53.688;10.746;2022-10-23T04:55:37;12.00;99.90
13164;DHT22;6647;53.688;10.746;2022-10-23T04:56:57;12.00;99.90
13164;DHT22;6647;53.688;10.746;2022-10-23T04:58:19;12.00;99.90
13164;DHT22;6647;53.688;10.746;2022-10-23T04:59:40;12.00;99.90
13164;DHT22;6647;53.688;10.746;2022-10-23T05:01:01;12.00;99.90
13164;DHT22;6647;53.688;10.746;2022-10-23T05:02:21;12.00;99.90
13164;DHT22;6647;53.688;10.746;2022-10-23T05:03:44;12.00;99.90
13164;DHT22;6647;53.688;10.746;2022-10-23T05:05:06;12.00;99.90
13164;DHT22;6647;53.688;10.746;2022-10-23T05:06:27;12.00;99.90
13164;DHT22;6647;53.688;10.746;2022-10-23T05:07:48;12.00;99.90
13164;DHT22;6647;53.688;10.746;2022-10-23T05:09:08;12.00;99.90
13164;DHT22;6647;53.688;10.746;2022-10-23T05:10:29;12.00;99.90
13164;DHT22;6647;53.688;10.746;2022-10-23T05:11:50;12.00;99.90
13164;DHT22;6647;53.688;10.746;2022-10-23T05:13:11;12.00;99.90
13164;DHT22;6647;53.688;10.746;2022-10-23T05:14:32;12.00;99.90
13164;DHT22;6647;53.688;10.746;2022-10-23T05:15:53;11.90;99.90
13164;DHT22;6647;53.688;10.746;2022-10-23T05:17:18;11.90;99.90
13164;DHT22;6647;53.688;10.746;2022-10-23T05:18:44;11.90;99.90
13164;DHT22;6647;53.688;10.746;2022-10-23T05:20:09;11.90;99.90
13164;DHT22;6647;53.688;10.746;2022-10-23T05:21:34;11.90;99.90
13164;DHT22;6647;53.688;10.746;2022-10-23T05:22:58;11.90;99.90
13164;DHT22;6647;53.688;10.746;2022-10-23T05:24:20;11.90;99.90
13164;DHT22;6647;53.688;10.746;2022-10-23T05:25:41;11.90;99.90
13164;DHT22;6647;53.688;10.746;2022-10-23T05:27:02;11.90;99.90
13164;DHT22;6647;53.688;10.746;2022-10-23T05:28:23;11.90;99.90
13164;DHT22;6647;53.688;10.746;2022-10-23T05:29:44;11.90;99.90
13164;DHT22;6647;53.688;10.746;2022-10-23T05:31:05;11.80;99.90
13164;DHT22;6647;53.688;10.746;2022-10-23T05:32:28;11.80;99.90
13164;DHT22;6647;53.688;10.746;2022-10-23T05:33:51;11.80;99.80
13164;DHT22;6647;53.688;10.746;2022-10-23T05:35:17;11.80;98.10
13164;DHT22;6647;53.688;10.746;2022-10-23T05:36:38;11.70;95.10
13164;DHT22;6647;53.688;10.746;2022-10-23T05:38:00;11.70;94.60
13164;DHT22;6647;53.688;10.746;2022-10-23T05:39:22;11.70;93.60
13164;DHT22;6647;53.688;10.746;2022-10-23T05:40:43;11.70;93.10
13164;DHT22;6647;53.688;10.746;2022-10-23T05:42:04;11.60;92.20
13164;DHT22;6647;53.688;10.746;2022-10-23T05:43:25;11.60;91.70
13164;DHT22;6647;53.688;10.746;2022-10-23T05:44:46;11.60;91.40
13164;DHT22;6647;53.688;10.746;2022-10-23T05:46:07;11.60;90.80
13164;DHT22;6647;53.688;10.746;2022-10-23T05:47:28;11.50;90.80
13164;DHT22;6647;53.688;10.746;2022-10-23T05:48:51;11.50;90.80
13164;DHT22;6647;53.688;10.746;2022-10-23T05:50:12;11.50;90.50
13164;DHT22;6647;53.688;10.746;2022-10-23T05:51:37;11.50;91.30
13164;DHT22;6647;53.688;10.746;2022-10-23T05:52:59;11.50;91.60
13164;DHT22;6647;53.688;10.746;2022-10-23T05:54:20;11.40;92.20
13164;DHT22;6647;53.688;10.746;2022-10-23T05:55:40;11.40;92.20
13164;DHT22;6647;53.688;10.746;2022-10-23T05:57:01;11.40;92.10
13164;DHT22;6647;53.688;10.746;2022-10-23T05:58:22;11.40;92.20
13164;DHT22;6647;53.688;10.746;2022-10-23T05:59:43;11.40;92.40
13164;DHT22;6647;53.688;10.746;2022-10-23T06:01:06;11.40;92.40
13164;DHT22;6647;53.688;10.746;2022-10-23T06:02:28;11.40;92.50
13164;DHT22;6647;53.688;10.746;2022-10-23T06:03:49;11.40;92.30
13164;DHT22;6647;53.688;10.746;2022-10-23T06:05:10;11.40;91.90
13164;DHT22;6647;53.688;10.746;2022-10-23T06:06:31;11.40;94.80
13164;DHT22;6647;53.688;10.746;2022-10-23T06:07:59;11.40;91.40
13164;DHT22;6647;53.688;10.746;2022-10-23T06:09:19;11.40;91.40
13164;DHT22;6647;53.688;10.746;2022-10-23T06:10:40;11.40;91.50
13164;DHT22;6647;53.688;10.746;2022-10-23T06:12:01;11.40;92.00
13164;DHT22;6647;53.688;10.746;2022-10-23T06:13:22;11.40;91.40
13164;DHT22;6647;53.688;10.746;2022-10-23T06:14:43;11.40;91.50
13164;DHT22;6647;53.688;10.746;2022-10-23T06:17:29;11.40;95.30
13164;DHT22;6647;53.688;10.746;2022-10-23T06:18:50;11.40;92.30
13164;DHT22;6647;53.688;10.746;2022-10-23T06:20:11;11.30;93.00
13164;DHT22;6647;53.688;10.746;2022-10-23T06:21:35;11.40;92.80
13164;DHT22;6647;53.688;10.746;2022-10-23T06:22:56;11.30;93.00
13164;DHT22;6647;53.688;10.746;2022-10-23T06:24:17;11.30;93.60
13164;DHT22;6647;53.688;10.746;2022-10-23T06:25:38;11.30;93.90
13164;DHT22;6647;53.688;10.746;2022-10-23T06:26:59;11.30;93.90
13164;DHT22;6647;53.688;10.746;2022-10-23T06:28:19;11.40;93.80
13164;DHT22;6647;53.688;10.746;2022-10-23T06:29:40;11.30;92.40
13164;DHT22;6647;53.688;10.746;2022-10-23T06:31:05;11.30;92.60
13164;DHT22;6647;53.688;10.746;2022-10-23T06:32:30;11.30;93.00
13164;DHT22;6647;53.688;10.746;2022-10-23T06:33:52;11.30;92.90
13164;DHT22;6647;53.688;10.746;2022-10-23T06:35:13;11.30;92.40
13164;DHT22;6647;53.688;10.746;2022-10-23T06:36:34;11.30;92.10
13164;DHT22;6647;53.688;10.746;2022-10-23T06:37:55;11.30;92.00
13164;DHT22;6647;53.688;10.746;2022-10-23T06:39:16;11.30;92.10
13164;DHT22;6647;53.688;10.746;2022-10-23T06:40:37;11.30;92.20
13164;DHT22;6647;53.688;10.746;2022-10-23T06:41:58;11.30;92.50
13164;DHT22;6647;53.688;10.746;2022-10-23T06:43:19;11.30;92.40
13164;DHT22;6647;53.688;10.746;2022-10-23T06:44:39;11.30;92.20
13164;DHT22;6647;53.688;10.746;2022-10-23T06:46:02;11.40;92.10
13164;DHT22;6647;53.688;10.746;2022-10-23T06:47:23;11.40;92.50
13164;DHT22;6647;53.688;10.746;2022-10-23T06:48:44;11.40;92.40
13164;DHT22;6647;53.688;10.746;2022-10-23T06:50:05;11.40;92.20
13164;DHT22;6647;53.688;10.746;2022-10-23T06:51:26;11.40;92.30
13164;DHT22;6647;53.688;10.746;2022-10-23T06:52:49;11.40;92.50
13164;DHT22;6647;53.688;10.746;2022-10-23T06:54:13;11.40;93.50
13164;DHT22;6647;53.688;10.746;2022-10-23T06:55:34;11.40;93.80
13164;DHT22;6647;53.688;10.746;2022-10-23T06:56:55;11.40;94.00
13164;DHT22;6647;53.688;10.746;2022-10-23T06:58:16;11.40;94.20
13164;DHT22;6647;53.688;10.746;2022-10-23T06:59:37;11.40;93.60
13164;DHT22;6647;53.688;10.746;2022-10-23T07:01:03;11.40;94.00
13164;DHT22;6647;53.688;10.746;2022-10-23T07:02:24;11.40;94.60
13164;DHT22;6647;53.688;10.746;2022-10-23T07:03:47;11.40;97.80
13164;DHT22;6647;53.688;10.746;2022-10-23T07:05:08;11.40;97.70
13164;DHT22;6647;53.688;10.746;2022-10-23T07:06:29;11.50;98.00
13164;DHT22;6647;53.688;10.746;2022-10-23T07:07:49;11.50;95.30
13164;DHT22;6647;53.688;10.746;2022-10-23T07:09:10;11.50;95.20
13164;DHT22;6647;53.688;10.746;2022-10-23T07:10:31;11.50;95.60
13164;DHT22;6647;53.688;10.746;2022-10-23T07:11:52;11.50;95.60
13164;DHT22;6647;53.688;10.746;2022-10-23T07:13:13;11.50;95.60
13164;DHT22;6647;53.688;10.746;2022-10-23T07:14:34;11.50;95.70
13164;DHT22;6647;53.688;10.746;2022-10-23T07:15:55;11.50;96.20
13164;DHT22;6647;53.688;10.746;2022-10-23T07:17:16;11.60;96.50
13164;DHT22;6647;53.688;10.746;2022-10-23T07:18:36;11.60;99.70
13164;DHT22;6647;53.688;10.746;2022-10-23T07:19:57;11.60;97.20
13164;DHT22;6647;53.688;10.746;2022-10-23T07:21:18;11.60;97.30
13164;DHT22;6647;53.688;10.746;2022-10-23T07:22:39;11.60;97.70
13164;DHT22;6647;53.688;10.746;2022-10-23T07:24:01;11.70;98.70
13164;DHT22;6647;53.688;10.746;2022-10-23T07:25:23;11.70;99.30
13164;DHT22;6647;53.688;10.746;2022-10-23T07:26:44;11.70;99.70
13164;DHT22;6647;53.688;10.746;2022-10-23T07:28:05;11.70;99.90
13164;DHT22;6647;53.688;10.746;2022-10-23T07:29:26;11.70;99.90
13164;DHT22;6647;53.688;10.746;2022-10-23T07:30:57;11.80;99.90
13164;DHT22;6647;53.688;10.746;2022-10-23T07:32:19;11.80;99.90
13164;DHT22;6647;53.688;10.746;2022-10-23T07:33:39;11.80;99.90
13164;DHT22;6647;53.688;10.746;2022-10-23T07:35:00;11.80;99.90
13164;DHT22;6647;53.688;10.746;2022-10-23T07:36:21;11.90;99.90
13164;DHT22;6647;53.688;10.746;2022-10-23T07:37:42;11.90;99.90
13164;DHT22;6647;53.688;10.746;2022-10-23T07:39:03;11.90;99.90
13164;DHT22;6647;53.688;10.746;2022-10-23T07:40:24;11.90;99.90
13164;DHT22;6647;53.688;10.746;2022-10-23T07:41:45;11.90;99.90
13164;DHT22;6647;53.688;10.746;2022-10-23T07:43:06;12.00;99.90
13164;DHT22;6647;53.688;10.746;2022-10-23T07:44:26;12.00;99.90
13164;DHT22;6647;53.688;10.746;2022-10-23T07:45:48;12.00;99.90
13164;DHT22;6647;53.688;10.746;2022-10-23T07:47:09;12.00;99.90
13164;DHT22;6647;53.688;10.746;2022-10-23T07:48:30;12.10;99.90
13164;DHT22;6647;53.688;10.746;2022-10-23T07:49:51;12.10;99.90
13164;DHT22;6647;53.688;10.746;2022-10-23T07:51:14;12.10;99.90
13164;DHT22;6647;53.688;10.746;2022-10-23T07:52:35;12.10;99.90
13164;DHT22;6647;53.688;10.746;2022-10-23T07:53:56;12.20;99.90
13164;DHT22;6647;53.688;10.746;2022-10-23T07:55:17;12.20;99.90
13164;DHT22;6647;53.688;10.746;2022-10-23T07:56:38;12.20;99.90
13164;DHT22;6647;53.688;10.746;2022-10-23T07:57:59;12.30;99.90
13164;DHT22;6647;53.688;10.746;2022-10-23T07:59:19;12.30;99.90
13164;DHT22;6647;53.688;10.746;2022-10-23T08:00:40;12.30;99.90
13164;DHT22;6647;53.688;10.746;2022-10-23T08:02:01;12.40;99.90
13164;DHT22;6647;53.688;10.746;2022-10-23T08:03:23;12.40;99.90
13164;DHT22;6647;53.688;10.746;2022-10-23T08:04:48;12.40;99.90
13164;DHT22;6647;53.688;10.746;2022-10-23T08:06:09;12.40;99.90
13164;DHT22;6647;53.688;10.746;2022-10-23T08:07:30;12.50;99.90
13164;DHT22;6647;53.688;10.746;2022-10-23T08:08:51;12.50;99.90
13164;DHT22;6647;53.688;10.746;2022-10-23T08:10:12;12.50;99.90
13164;DHT22;6647;53.688;10.746;2022-10-23T08:11:33;12.60;99.90
13164;DHT22;6647;53.688;10.746;2022-10-23T08:12:57;12.50;99.90
13164;DHT22;6647;53.688;10.746;2022-10-23T08:14:18;12.60;99.90
13164;DHT22;6647;53.688;10.746;2022-10-23T08:15:40;12.60;99.90
13164;DHT22;6647;53.688;10.746;2022-10-23T08:17:01;12.60;99.90
13164;DHT22;6647;53.688;10.746;2022-10-23T08:18:24;12.70;99.90
13164;DHT22;6647;53.688;10.746;2022-10-23T08:19:45;12.70;99.90
13164;DHT22;6647;53.688;10.746;2022-10-23T08:21:08;12.70;99.90
13164;DHT22;6647;53.688;10.746;2022-10-23T08:22:29;12.70;99.90
13164;DHT22;6647;53.688;10.746;2022-10-23T08:23:57;12.80;99.90
13164;DHT22;6647;53.688;10.746;2022-10-23T08:25:19;12.80;99.90
13164;DHT22;6647;53.688;10.746;2022-10-23T08:26:40;12.90;99.90
13164;DHT22;6647;53.688;10.746;2022-10-23T08:28:00;12.90;99.90
13164;DHT22;6647;53.688;10.746;2022-10-23T08:29:21;12.90;99.90
13164;DHT22;6647;53.688;10.746;2022-10-23T08:30:42;12.90;99.90
13164;DHT22;6647;53.688;10.746;2022-10-23T08:32:03;13.00;99.90
13164;DHT22;6647;53.688;10.746;2022-10-23T08:33:25;13.00;99.90
13164;DHT22;6647;53.688;10.746;2022-10-23T08:34:45;13.10;99.90
13164;DHT22;6647;53.688;10.746;2022-10-23T08:36:16;13.10;99.90
13164;DHT22;6647;53.688;10.746;2022-10-23T08:37:38;13.10;99.90
13164;DHT22;6647;53.688;10.746;2022-10-23T08:38:59;13.20;99.90
13164;DHT22;6647;53.688;10.746;2022-10-23T08:40:24;13.20;99.90
13164;DHT22;6647;53.688;10.746;2022-10-23T08:41:50;13.30;99.90
13164;DHT22;6647;53.688;10.746;2022-10-23T08:43:18;13.30;99.90
13164;DHT22;6647;53.688;10.746;2022-10-23T08:45:05;13.40;99.90
13164;DHT22;6647;53.688;10.746;2022-10-23T08:46:33;13.40;99.90
13164;DHT22;6647;53.688;10.746;2022-10-23T08:48:00;13.50;99.90
13164;DHT22;6647;53.688;10.746;2022-10-23T08:51:18;13.60;99.90
13164;DHT22;6647;53.688;10.746;2022-10-23T08:52:49;13.60;99.90
13164;DHT22;6647;53.688;10.746;2022-10-23T08:54:33;13.60;99.90
13164;DHT22;6647;53.688;10.746;2022-10-23T08:56:02;13.70;99.90
13164;DHT22;6647;53.688;10.746;2022-10-23T08:57:26;13.70;99.90
13164;DHT22;6647;53.688;10.746;2022-10-23T08:59:20;13.70;99.90
13164;DHT22;6647;53.688;10.746;2022-10-23T09:00:46;13.80;99.90
13164;DHT22;6647;53.688;10.746;2022-10-23T09:03:33;13.90;99.90
13164;DHT22;6647;53.688;10.746;2022-10-23T09:04:55;13.90;99.90
13164;DHT22;6647;53.688;10.746;2022-10-23T09:06:29;14.00;99.90
13164;DHT22;6647;53.688;10.746;2022-10-23T09:09:54;14.10;99.90
13164;DHT22;6647;53.688;10.746;2022-10-23T09:13:32;14.20;99.90
13164;DHT22;6647;53.688;10.746;2022-10-23T09:17:12;14.30;96.10
13164;DHT22;6647;53.688;10.746;2022-10-23T09:18:35;14.40;94.30
13164;DHT22;6647;53.688;10.746;2022-10-23T09:20:06;14.40;90.20
13164;DHT22;6647;53.688;10.746;2022-10-23T09:21:31;14.50;90.40
13164;DHT22;6647;53.688;10.746;2022-10-23T09:22:56;14.50;90.10
13164;DHT22;6647;53.688;10.746;2022-10-23T09:24:22;14.60;90.50
13164;DHT22;6647;53.688;10.746;2022-10-23T09:25:44;14.60;84.80
13164;DHT22;6647;53.688;10.746;2022-10-23T09:27:12;14.70;82.00
13164;DHT22;6647;53.688;10.746;2022-10-23T09:30:06;14.70;79.60
13164;DHT22;6647;53.688;10.746;2022-10-23T09:31:27;14.80;72.80